Time;durP1;ratioP1;P1;durP2;ratioP2;P2;SDS_P1;SDS_P2;PMS_P1;PMS_P2;Temp;Humidity;BMP_temperature;BMP_pressure;BME280_temperature;BME280_humidity;BME280_pressure;Samples;Min_cycle;Max_cycle;Signal;HPM_P1;HPM_P2
2021/11/28 00:00:04;;;;;;;612.95;228.15;;;6.00;99.90;;;;;;5047772;28;20212;-78
2021/11/28 00:02:34;;;;;;;601.92;203.43;;;6.00;99.90;;;;;;5055759;28;20230;-78
2021/11/28 00:05:02;;;;;;;607.50;212.85;;;6.00;99.90;;;;;;5066239;28;20242;-78
2021/11/28 00:07:41;;;;;;;601.53;207.32;;;6.00;99.90;;;;;;5029380;28;20690;-79
2021/11/28 00:10:15;;;;;;;611.75;216.30;;;6.00;99.90;;;;;;5034686;28;20195;-78
2021/11/28 00:12:44;;;;;;;611.30;224.68;;;6.00;99.90;;;;;;5032658;28;20217;-78
2021/11/28 00:15:15;;;;;;;610.38;221.63;;;6.00;99.90;;;;;;5032267;28;20210;-78
2021/11/28 00:17:42;;;;;;;597.88;196.80;;;5.90;99.90;;;;;;5039233;28;20226;-78
2021/11/28 00:20:12;;;;;;;611.83;220.88;;;6.00;99.90;;;;;;5039025;28;20210;-78
2021/11/28 00:22:41;;;;;;;602.83;196.63;;;6.00;99.90;;;;;;5032607;28;20203;-78
2021/11/28 00:25:11;;;;;;;604.00;204.77;;;6.00;99.90;;;;;;5031946;28;20203;-79
2021/11/28 00:27:40;;;;;;;608.10;213.38;;;6.00;99.90;;;;;;5032009;28;20211;-79
2021/11/28 00:30:10;;;;;;;606.58;208.73;;;6.00;99.90;;;;;;5031561;28;20215;-78
2021/11/28 00:32:38;;;;;;;612.78;229.77;;;6.00;99.90;;;;;;5035309;28;20207;-79
2021/11/28 00:35:09;;;;;;;598.67;191.20;;;6.00;99.90;;;;;;5070845;28;20202;-78
2021/11/28 00:37:36;;;;;;;611.78;228.75;;;6.00;99.90;;;;;;5045087;28;20224;-79
2021/11/28 00:40:05;;;;;;;612.20;219.75;;;6.00;99.90;;;;;;5038373;28;20199;-79
2021/11/28 00:42:34;;;;;;;607.17;213.00;;;6.00;99.90;;;;;;5033668;28;20230;-79
2021/11/28 00:45:01;;;;;;;602.72;206.88;;;6.00;99.90;;;;;;5033696;28;20252;-79
2021/11/28 00:47:28;;;;;;;610.58;217.48;;;6.00;99.90;;;;;;5032673;28;20222;-79
2021/11/28 00:50:05;;;;;;;608.55;222.23;;;6.00;99.90;;;;;;5034216;28;20335;-79
2021/11/28 00:52:34;;;;;;;611.85;230.55;;;6.10;99.90;;;;;;5036822;28;20213;-79
2021/11/28 00:55:03;;;;;;;608.10;215.05;;;6.10;99.90;;;;;;5036173;28;20618;-79
2021/11/28 00:57:30;;;;;;;602.00;191.85;;;6.10;99.90;;;;;;5035996;28;20203;-79
2021/11/28 01:00:00;;;;;;;600.75;192.57;;;6.10;99.90;;;;;;5036180;28;20231;-79
2021/11/28 01:02:27;;;;;;;603.03;205.63;;;6.10;99.90;;;;;;5030466;28;20207;-79
2021/11/28 01:04:54;;;;;;;610.35;215.80;;;6.20;99.90;;;;;;5048996;28;20271;-79
2021/11/28 01:07:21;;;;;;;606.92;210.80;;;6.10;99.90;;;;;;5050058;28;20249;-79
2021/11/28 01:09:49;;;;;;;597.75;194.05;;;6.10;99.90;;;;;;5050483;28;20203;-79
2021/11/28 01:12:16;;;;;;;602.72;189.85;;;6.10;99.90;;;;;;5051001;28;20198;-79
2021/11/28 01:14:43;;;;;;;600.15;194.38;;;6.10;99.90;;;;;;5055621;28;20202;-79
2021/11/28 01:17:13;;;;;;;613.97;237.00;;;6.10;99.90;;;;;;5053678;28;20204;-79
2021/11/28 01:19:40;;;;;;;612.90;236.68;;;6.10;99.90;;;;;;5050288;28;20202;-79
2021/11/28 01:22:11;;;;;;;609.65;206.50;;;6.10;99.90;;;;;;5050011;28;20203;-79
2021/11/28 01:24:38;;;;;;;612.53;226.57;;;6.10;99.90;;;;;;5048981;28;20357;-79
2021/11/28 01:27:07;;;;;;;608.95;214.00;;;6.10;99.90;;;;;;5048850;28;20284;-78
2021/11/28 01:29:35;;;;;;;605.28;199.18;;;6.10;99.90;;;;;;5050963;28;20202;-78
2021/11/28 01:32:02;;;;;;;610.55;217.10;;;6.10;99.90;;;;;;5050662;28;20247;-78
2021/11/28 01:34:32;;;;;;;607.47;214.85;;;6.10;99.90;;;;;;5050922;28;20257;-78
2021/11/28 01:37:00;;;;;;;610.90;214.25;;;6.10;99.90;;;;;;5055622;28;20229;-78
2021/11/28 01:39:27;;;;;;;606.78;200.77;;;6.10;99.90;;;;;;5058906;28;20234;-78
2021/11/28 01:41:54;;;;;;;616.00;228.45;;;6.10;99.90;;;;;;5052058;28;20206;-78
2021/11/28 01:44:21;;;;;;;603.97;211.00;;;6.10;99.90;;;;;;5058122;28;20197;-78
2021/11/28 01:46:48;;;;;;;612.40;219.55;;;6.00;99.90;;;;;;5056206;28;20634;-78
2021/11/28 01:49:15;;;;;;;609.47;221.43;;;6.00;99.90;;;;;;5056716;28;20198;-78
2021/11/28 01:51:44;;;;;;;597.95;194.50;;;6.10;99.90;;;;;;5056488;28;20210;-78
2021/11/28 01:54:12;;;;;;;608.75;213.07;;;6.00;99.90;;;;;;5048863;28;20205;-78
2021/11/28 01:56:41;;;;;;;609.85;213.05;;;6.10;99.90;;;;;;5054023;28;20213;-78
2021/11/28 01:59:08;;;;;;;611.80;213.98;;;6.10;99.90;;;;;;5049636;28;20203;-78
2021/11/28 02:01:36;;;;;;;597.88;193.13;;;6.10;99.90;;;;;;5052135;28;20206;-78
2021/11/28 02:04:03;;;;;;;597.67;191.45;;;6.00;99.90;;;;;;5049888;28;20252;-79
2021/11/28 02:06:30;;;;;;;604.70;205.48;;;6.00;99.90;;;;;;5049194;28;20222;-78
2021/11/28 02:08:59;;;;;;;606.53;213.25;;;6.00;99.90;;;;;;5049116;28;20869;-78
2021/11/28 02:11:27;;;;;;;609.22;220.38;;;6.00;99.90;;;;;;5049003;28;20657;-78
2021/11/28 02:13:54;;;;;;;605.83;210.57;;;6.00;99.90;;;;;;5048777;28;20727;-78
2021/11/28 02:16:21;;;;;;;601.00;201.55;;;6.00;99.90;;;;;;5050013;28;20210;-78
2021/11/28 02:18:50;;;;;;;608.22;219.23;;;5.90;99.90;;;;;;5048493;28;20206;-78
2021/11/28 02:21:19;;;;;;;613.67;229.02;;;5.90;99.90;;;;;;5054362;28;20273;-78
2021/11/28 02:23:46;;;;;;;609.25;213.00;;;5.90;99.90;;;;;;5050037;28;20206;-78
2021/11/28 02:26:15;;;;;;;601.75;206.05;;;5.80;99.90;;;;;;5057967;28;20221;-78
2021/11/28 02:28:44;;;;;;;605.95;205.25;;;5.90;99.90;;;;;;5053669;28;20234;-77
2021/11/28 02:31:12;;;;;;;609.03;210.80;;;5.80;99.90;;;;;;5047717;28;20249;-77
2021/11/28 02:33:39;;;;;;;597.40;193.00;;;5.80;99.90;;;;;;5052236;28;20255;-78
2021/11/28 02:36:08;;;;;;;609.22;222.32;;;5.80;99.90;;;;;;5049739;28;20229;-77
2021/11/28 02:38:36;;;;;;;609.03;215.02;;;5.80;99.90;;;;;;5056598;28;20221;-77
2021/11/28 02:41:04;;;;;;;599.47;188.25;;;5.80;99.90;;;;;;5051729;28;20260;-77
2021/11/28 02:43:33;;;;;;;596.60;183.07;;;5.80;99.90;;;;;;5056083;28;20638;-77
2021/11/28 02:46:02;;;;;;;600.95;196.55;;;5.80;99.90;;;;;;5051217;28;20206;-77
2021/11/28 02:48:29;;;;;;;610.72;218.10;;;5.70;99.90;;;;;;5047581;28;20643;-77
2021/11/28 02:50:58;;;;;;;596.85;203.93;;;5.70;99.90;;;;;;5052014;28;20228;-77
2021/11/28 02:53:25;;;;;;;595.95;196.77;;;5.60;99.90;;;;;;5045619;28;20224;-77
2021/11/28 02:55:56;;;;;;;609.97;214.80;;;5.60;99.90;;;;;;5046178;28;20205;-77
2021/11/28 02:58:25;;;;;;;603.33;198.05;;;5.60;99.90;;;;;;5058236;28;20230;-77
2021/11/28 03:01:02;;;;;;;598.75;194.52;;;5.50;99.90;;;;;;5046453;28;20624;-77
2021/11/28 03:03:29;;;;;;;605.65;200.38;;;5.50;99.90;;;;;;5046443;28;20226;-77
2021/11/28 03:05:57;;;;;;;603.40;196.77;;;5.40;99.90;;;;;;5052886;28;20235;-78
2021/11/28 03:08:24;;;;;;;604.75;195.98;;;5.30;99.90;;;;;;5047988;28;20230;-78
2021/11/28 03:10:54;;;;;;;590.53;167.00;;;5.20;99.90;;;;;;5053723;28;20227;-78
2021/11/28 03:13:22;;;;;;;603.75;196.07;;;5.20;99.90;;;;;;5051564;28;20239;-78
2021/11/28 03:15:52;;;;;;;592.65;185.82;;;5.10;99.90;;;;;;5048399;28;20209;-78
2021/11/28 03:18:21;;;;;;;601.03;199.75;;;5.00;99.90;;;;;;5048735;28;20217;-78
2021/11/28 03:20:51;;;;;;;589.78;170.98;;;5.10;99.90;;;;;;5054154;28;20209;-78
2021/11/28 03:23:20;;;;;;;594.35;181.15;;;4.90;99.90;;;;;;5050413;28;20233;-78
2021/11/28 03:25:47;;;;;;;606.35;196.80;;;4.90;99.90;;;;;;5047702;28;20206;-78
2021/11/28 03:28:17;;;;;;;601.88;201.38;;;4.80;99.90;;;;;;5053830;28;20230;-78
2021/11/28 03:30:47;;;;;;;595.35;188.65;;;4.80;99.90;;;;;;5053079;28;20213;-78
2021/11/28 03:33:15;;;;;;;587.22;166.00;;;4.80;99.90;;;;;;5049640;28;20203;-78
2021/11/28 03:35:42;;;;;;;599.88;186.23;;;4.70;99.90;;;;;;5047350;28;20206;-77
2021/11/28 03:38:09;;;;;;;596.95;178.18;;;4.70;99.90;;;;;;5046878;28;20206;-77
2021/11/28 03:40:37;;;;;;;600.42;174.48;;;4.60;99.90;;;;;;5053639;28;20427;-77
2021/11/28 03:43:04;;;;;;;592.88;165.70;;;4.60;99.90;;;;;;5046555;28;20201;-77
2021/11/28 03:45:33;;;;;;;596.05;173.65;;;4.60;99.90;;;;;;5048011;28;20225;-77
2021/11/28 03:48:00;;;;;;;596.33;166.82;;;4.70;99.90;;;;;;5051646;28;20230;-78
2021/11/28 03:50:27;;;;;;;597.75;171.65;;;4.80;99.90;;;;;;5054981;28;20264;-78
2021/11/28 03:52:54;;;;;;;591.28;164.93;;;4.80;99.90;;;;;;5054161;28;20731;-77
2021/11/28 03:55:23;;;;;;;590.90;165.88;;;4.80;99.90;;;;;;5057268;28;20233;-78
2021/11/28 03:57:50;;;;;;;581.13;150.75;;;4.80;99.90;;;;;;5050688;28;20211;-77
2021/11/28 04:00:17;;;;;;;592.67;170.77;;;4.80;99.90;;;;;;5050407;28;20228;-78
2021/11/28 04:02:47;;;;;;;596.42;175.70;;;4.80;99.90;;;;;;5050064;28;20243;-78
2021/11/28 04:05:14;;;;;;;601.70;181.73;;;4.80;99.90;;;;;;5050448;28;20202;-78
2021/11/28 04:07:41;;;;;;;598.60;170.23;;;4.80;99.90;;;;;;5054630;28;20236;-78
2021/11/28 04:10:09;;;;;;;591.20;167.98;;;4.80;99.90;;;;;;5055043;28;20206;-78
2021/11/28 04:12:37;;;;;;;596.25;188.90;;;4.80;99.90;;;;;;5061661;28;20202;-78
2021/11/28 04:15:05;;;;;;;596.05;182.07;;;4.80;99.90;;;;;;5050774;28;20268;-78
2021/11/28 04:17:32;;;;;;;597.25;176.85;;;4.80;99.90;;;;;;5049957;28;20212;-78
2021/11/28 04:20:01;;;;;;;596.65;181.55;;;4.70;99.90;;;;;;5050008;28;20243;-78
2021/11/28 04:22:28;;;;;;;590.35;170.23;;;4.60;99.90;;;;;;5051012;28;20210;-78
2021/11/28 04:24:55;;;;;;;598.95;186.57;;;4.60;99.90;;;;;;5062038;28;20263;-78
2021/11/28 04:27:23;;;;;;;599.80;188.02;;;4.60;99.90;;;;;;5054703;28;20253;-78
2021/11/28 04:29:50;;;;;;;596.30;176.15;;;4.50;99.90;;;;;;5052845;28;20225;-77
2021/11/28 04:32:19;;;;;;;592.83;174.45;;;4.60;99.90;;;;;;5050931;28;20827;-77
2021/11/28 04:34:46;;;;;;;594.63;177.38;;;4.60;99.90;;;;;;5052639;28;20228;-79
2021/11/28 04:37:14;;;;;;;591.10;176.60;;;4.70;99.90;;;;;;5050415;28;20206;-79
2021/11/28 04:39:41;;;;;;;579.75;157.57;;;4.70;99.90;;;;;;5049851;28;20209;-79
2021/11/28 04:42:09;;;;;;;597.95;175.98;;;4.70;99.90;;;;;;5049396;28;20234;-80
2021/11/28 04:44:36;;;;;;;580.25;178.82;;;4.60;99.90;;;;;;5059478;28;20206;-79
2021/11/28 04:47:03;;;;;;;576.25;165.00;;;4.70;99.90;;;;;;5052528;28;20225;-78
2021/11/28 04:49:31;;;;;;;596.97;189.50;;;4.70;99.90;;;;;;5050528;28;20763;-78
2021/11/28 04:51:58;;;;;;;582.97;162.95;;;4.70;99.90;;;;;;5050537;28;20206;-78
2021/11/28 04:54:26;;;;;;;594.70;175.55;;;4.70;99.90;;;;;;5050024;28;20248;-78
2021/11/28 04:56:53;;;;;;;595.78;183.82;;;4.80;99.90;;;;;;5050439;28;20232;-78
2021/11/28 04:59:20;;;;;;;592.28;172.52;;;4.90;99.90;;;;;;5050056;28;20302;-78
2021/11/28 05:01:47;;;;;;;586.72;167.95;;;4.80;99.90;;;;;;5049934;28;20214;-79
2021/11/28 05:04:14;;;;;;;593.40;167.65;;;4.80;99.90;;;;;;5049228;28;20238;-78
2021/11/28 05:06:41;;;;;;;584.42;167.82;;;4.80;99.90;;;;;;5053018;28;20548;-78
2021/11/28 05:09:09;;;;;;;579.95;154.73;;;4.80;99.90;;;;;;5051304;28;20214;-78
2021/11/28 05:11:37;;;;;;;587.75;164.25;;;4.90;99.90;;;;;;5054649;28;20194;-78
2021/11/28 05:14:25;;;;;;;595.53;186.25;;;4.90;99.90;;;;;;5050059;28;20233;-78
2021/11/28 05:16:52;;;;;;;593.50;175.18;;;5.00;99.90;;;;;;5049892;28;20233;-78
2021/11/28 05:19:19;;;;;;;589.72;172.60;;;5.00;99.90;;;;;;5062197;28;20202;-78
2021/11/28 05:21:46;;;;;;;573.65;163.48;;;5.00;99.90;;;;;;5054483;28;20201;-78
2021/11/28 05:24:13;;;;;;;589.78;190.95;;;4.90;99.90;;;;;;5051251;28;20202;-78
2021/11/28 05:26:42;;;;;;;587.35;163.38;;;4.90;99.90;;;;;;5056441;28;20225;-78
2021/11/28 05:29:10;;;;;;;590.95;176.43;;;4.90;99.90;;;;;;5053460;28;20238;-78
2021/11/28 05:31:37;;;;;;;587.80;179.13;;;4.90;99.90;;;;;;5058661;28;20237;-78
2021/11/28 05:34:03;;;;;;;590.80;175.48;;;4.90;99.90;;;;;;5052889;28;20244;-78
2021/11/28 05:36:30;;;;;;;585.85;165.30;;;4.90;99.90;;;;;;5049488;28;20199;-78
2021/11/28 05:38:57;;;;;;;583.67;175.85;;;4.90;99.90;;;;;;5055400;28;20199;-78
2021/11/28 05:41:24;;;;;;;587.30;180.40;;;4.90;99.90;;;;;;5048405;28;20195;-78
2021/11/28 05:43:53;;;;;;;592.50;179.02;;;4.80;99.90;;;;;;5054392;28;21021;-78
2021/11/28 05:46:20;;;;;;;586.25;188.82;;;4.90;99.90;;;;;;5062317;28;20206;-78
2021/11/28 05:48:47;;;;;;;575.65;166.95;;;4.90;99.90;;;;;;5060552;28;20253;-78
2021/11/28 05:51:14;;;;;;;582.40;166.82;;;5.00;99.90;;;;;;5062993;28;20268;-78
2021/11/28 05:53:41;;;;;;;583.13;176.95;;;5.00;99.90;;;;;;5063570;28;20228;-78
2021/11/28 05:56:08;;;;;;;596.42;194.55;;;5.00;99.90;;;;;;5055796;28;20224;-78
2021/11/28 05:58:35;;;;;;;591.22;184.20;;;5.00;99.90;;;;;;5057954;28;20283;-78
2021/11/28 06:01:03;;;;;;;592.38;196.57;;;5.00;99.90;;;;;;5060829;28;20198;-78
2021/11/28 06:03:30;;;;;;;580.90;177.02;;;5.00;99.90;;;;;;5067914;28;20236;-78
2021/11/28 06:05:57;;;;;;;592.65;198.00;;;5.00;99.90;;;;;;5056579;28;20202;-78
2021/11/28 06:08:24;;;;;;;590.67;210.40;;;5.00;99.90;;;;;;5049071;28;20624;-78
2021/11/28 06:10:51;;;;;;;579.65;192.93;;;5.00;99.90;;;;;;5061267;28;20214;-78
2021/11/28 06:13:18;;;;;;;573.53;180.55;;;5.00;99.90;;;;;;5057364;28;20209;-78
2021/11/28 06:15:45;;;;;;;579.13;177.85;;;5.00;99.90;;;;;;5066053;28;20652;-78
2021/11/28 06:18:14;;;;;;;579.88;175.57;;;5.00;99.90;;;;;;5059743;28;20271;-78
2021/11/28 06:20:41;;;;;;;588.40;177.52;;;5.00;99.90;;;;;;5067388;28;20206;-78
2021/11/28 06:23:08;;;;;;;590.55;179.10;;;5.00;99.90;;;;;;5049274;28;20210;-78
2021/11/28 06:25:35;;;;;;;599.42;194.13;;;5.00;99.90;;;;;;5060717;28;20208;-78
2021/11/28 06:28:02;;;;;;;600.17;197.20;;;5.00;99.90;;;;;;5048687;28;20222;-77
2021/11/28 06:30:30;;;;;;;586.90;174.05;;;5.00;99.90;;;;;;5053965;28;20257;-77
2021/11/28 06:32:58;;;;;;;600.30;196.60;;;5.00;99.90;;;;;;5053352;28;20214;-77
2021/11/28 06:35:27;;;;;;;602.50;200.32;;;5.00;99.90;;;;;;5054468;28;20210;-78
2021/11/28 06:37:54;;;;;;;588.40;164.43;;;5.10;99.90;;;;;;5062047;28;20239;-78
2021/11/28 06:40:21;;;;;;;598.75;196.68;;;5.10;99.90;;;;;;5060144;28;20201;-77
2021/11/28 06:42:48;;;;;;;604.55;202.35;;;5.00;99.90;;;;;;5056129;28;20224;-78
2021/11/28 06:45:15;;;;;;;593.13;178.82;;;5.00;99.90;;;;;;5065896;28;20190;-78
2021/11/28 06:47:43;;;;;;;598.20;184.50;;;5.00;99.90;;;;;;5057759;28;20229;-78
2021/11/28 06:50:10;;;;;;;599.85;189.90;;;5.10;99.90;;;;;;5054789;28;20240;-78
2021/11/28 06:52:39;;;;;;;602.78;180.63;;;5.20;99.90;;;;;;5063214;28;20210;-78
2021/11/28 06:55:07;;;;;;;599.63;198.02;;;5.10;99.90;;;;;;5054130;28;20205;-78
2021/11/28 06:57:34;;;;;;;586.03;171.90;;;5.10;99.90;;;;;;5057366;28;20201;-78
2021/11/28 07:00:01;;;;;;;592.60;176.95;;;5.20;99.90;;;;;;5057023;28;20654;-78
2021/11/28 07:02:29;;;;;;;603.13;192.52;;;5.20;99.90;;;;;;5056424;28;20225;-79
2021/11/28 07:04:58;;;;;;;600.70;193.18;;;5.20;99.90;;;;;;5051647;28;20241;-79
2021/11/28 07:07:25;;;;;;;613.67;222.90;;;5.20;99.90;;;;;;5067905;28;20974;-78
2021/11/28 07:09:53;;;;;;;603.35;191.50;;;5.10;99.90;;;;;;5060591;28;20268;-79
2021/11/28 07:12:21;;;;;;;591.05;167.27;;;5.30;99.90;;;;;;5056795;28;20206;-78
2021/11/28 07:14:50;;;;;;;599.85;187.05;;;5.30;99.90;;;;;;5068981;28;20236;-78
2021/11/28 07:17:18;;;;;;;605.60;199.82;;;5.30;99.90;;;;;;5055522;28;20210;-79
2021/11/28 07:19:45;;;;;;;599.35;188.25;;;5.30;99.90;;;;;;5056306;28;20232;-79
2021/11/28 07:22:12;;;;;;;590.65;178.15;;;5.30;99.90;;;;;;5063144;28;20256;-78
2021/11/28 07:24:39;;;;;;;595.38;175.48;;;5.30;99.90;;;;;;5058659;28;20211;-78
2021/11/28 07:27:08;;;;;;;592.15;174.32;;;5.20;99.90;;;;;;5071861;28;20201;-78
2021/11/28 07:29:35;;;;;;;605.85;207.27;;;5.10;99.90;;;;;;5072495;28;20221;-78
2021/11/28 07:32:02;;;;;;;602.35;192.45;;;5.10;99.90;;;;;;5068072;28;20206;-78
2021/11/28 07:34:30;;;;;;;589.92;175.48;;;5.10;99.90;;;;;;5067490;28;20198;-78
2021/11/28 07:36:57;;;;;;;599.15;185.63;;;5.10;99.90;;;;;;5054383;28;20264;-79
2021/11/28 07:39:24;;;;;;;600.20;198.00;;;5.10;99.90;;;;;;5065346;28;20224;-78
2021/11/28 07:47:20;;;;;;;593.97;174.38;;;5.10;99.90;;;;;;5063994;28;20205;-80
2021/11/28 08:00:35;;;;;;;589.70;171.65;;;5.30;99.90;;;;;;5064251;28;20217;-82
2021/11/28 08:11:14;;;;;;;593.03;170.48;;;5.20;99.90;;;;;;5061087;28;20205;-82
2021/11/28 08:16:31;;;;;;;600.65;198.75;;;5.20;99.90;;;;;;5053513;28;20206;-82
2021/11/28 08:21:47;;;;;;;611.20;214.25;;;5.30;99.90;;;;;;5059713;28;20240;-82
2021/11/28 08:24:22;;;;;;;607.55;203.68;;;5.30;99.90;;;;;;5059542;28;20269;-82
2021/11/28 08:26:49;;;;;;;596.05;183.00;;;5.40;99.90;;;;;;5056055;28;20263;-82
2021/11/28 08:29:16;;;;;;;598.40;182.70;;;5.50;99.90;;;;;;5063980;28;20225;-82
2021/11/28 08:32:00;;;;;;;610.30;205.65;;;5.50;99.90;;;;;;5054976;28;20886;-82
2021/11/28 08:34:27;;;;;;;589.17;174.17;;;5.50;99.90;;;;;;5061412;28;20214;-82
2021/11/28 08:39:46;;;;;;;611.05;206.40;;;5.50;99.90;;;;;;5055460;28;20285;-82
2021/11/28 08:42:21;;;;;;;605.55;201.82;;;5.50;99.90;;;;;;5062996;28;20202;-82
2021/11/28 08:47:30;;;;;;;597.15;187.27;;;5.70;99.90;;;;;;5060880;28;20198;-82
2021/11/28 08:49:57;;;;;;;615.85;223.40;;;5.70;99.90;;;;;;5059170;28;20253;-82
2021/11/28 08:57:56;;;;;;;610.85;223.07;;;5.80;99.90;;;;;;5063161;28;20236;-82
2021/11/28 09:03:20;;;;;;;612.40;224.57;;;5.90;99.90;;;;;;5060319;28;20215;-82
2021/11/28 09:05:51;;;;;;;607.92;210.10;;;6.00;99.90;;;;;;5068209;28;20202;-82
2021/11/28 09:19:13;;;;;;;605.72;206.98;;;6.20;99.90;;;;;;5065940;28;20237;-82
2021/11/28 09:21:48;;;;;;;605.65;219.55;;;6.30;99.90;;;;;;5062673;28;20213;-82
2021/11/28 09:24:35;;;;;;;606.05;222.07;;;6.40;99.90;;;;;;5063310;28;20209;-82
2021/11/28 09:27:04;;;;;;;604.97;221.98;;;6.60;99.90;;;;;;5058242;28;20202;-78
2021/11/28 09:35:04;;;;;;;612.63;229.35;;;6.90;99.90;;;;;;5062352;28;20262;-81
2021/11/28 09:37:32;;;;;;;619.05;241.93;;;7.00;99.90;;;;;;5059185;28;20205;-78
2021/11/28 09:40:00;;;;;;;620.00;249.07;;;7.00;99.90;;;;;;5063275;28;20269;-77
2021/11/28 09:42:33;;;;;;;611.03;225.50;;;7.10;99.90;;;;;;5065241;28;20209;-78
2021/11/28 09:45:02;;;;;;;608.97;219.32;;;7.10;99.90;;;;;;5067426;28;20225;-78
2021/11/28 09:47:33;;;;;;;622.92;256.67;;;7.30;99.90;;;;;;5067935;28;20213;-81
2021/11/28 09:50:11;;;;;;;611.47;226.80;;;7.40;99.90;;;;;;5076266;28;20226;-82
2021/11/28 09:52:43;;;;;;;621.92;263.27;;;7.40;99.90;;;;;;5056921;28;20202;-82
2021/11/28 10:00:42;;;;;;;637.25;300.67;;;7.50;99.90;;;;;;5060170;28;20208;-82
2021/11/28 10:08:35;;;;;;;626.80;271.20;;;7.60;99.90;;;;;;5067235;28;20919;-82
2021/11/28 10:11:24;;;;;;;615.72;242.18;;;7.60;99.90;;;;;;5063365;28;20207;-81
2021/11/28 10:13:54;;;;;;;631.45;278.98;;;7.60;99.90;;;;;;5042641;28;20213;-81
2021/11/28 10:21:56;;;;;;;623.05;248.95;;;7.50;99.90;;;;;;5055928;28;20229;-81
2021/11/28 10:24:30;;;;;;;635.55;298.33;;;7.50;99.90;;;;;;5056243;28;20228;-81
2021/11/28 10:32:26;;;;;;;615.67;241.32;;;7.60;99.90;;;;;;5058921;28;20285;-82
2021/11/28 10:34:53;;;;;;;619.85;238.50;;;7.60;99.90;;;;;;5060828;28;20231;-82
2021/11/28 10:37:23;;;;;;;621.03;247.15;;;7.60;99.90;;;;;;5063723;28;20201;-81
2021/11/28 10:42:35;;;;;;;628.92;268.63;;;7.50;99.90;;;;;;5056852;28;20198;-81
2021/11/28 10:50:33;;;;;;;617.72;244.15;;;7.60;99.90;;;;;;5050400;28;20252;-81
2021/11/28 10:53:15;;;;;;;636.15;269.92;;;7.70;99.90;;;;;;5050579;28;20235;-81
2021/11/28 11:01:11;;;;;;;627.88;265.45;;;7.60;99.90;;;;;;5064906;28;20269;-81
2021/11/28 11:05:12;;;;;;;630.50;266.40;;;7.60;99.90;;;;;;5116940;27;20580;-80
2021/11/28 11:07:44;;;;;;;632.47;273.50;;;7.60;99.90;;;;;;5124123;28;20195;-80
2021/11/28 11:10:24;;;;;;;631.15;261.67;;;7.50;99.90;;;;;;5108617;28;20203;-80
2021/11/28 11:15:37;;;;;;;635.85;259.17;;;7.50;99.90;;;;;;5116298;28;20268;-81
2021/11/28 11:20:55;;;;;;;625.28;252.23;;;7.60;99.90;;;;;;5116985;28;20212;-81
2021/11/28 11:23:40;;;;;;;637.92;278.67;;;7.70;99.90;;;;;;5120630;28;20286;-81
2021/11/28 11:26:16;;;;;;;633.70;267.73;;;7.70;99.90;;;;;;5100324;28;20204;-81
2021/11/28 11:29:01;;;;;;;640.35;293.10;;;7.80;99.90;;;;;;5114408;28;20268;-81
2021/11/28 11:31:28;;;;;;;633.63;270.90;;;7.90;99.90;;;;;;5117127;28;20255;-81
2021/11/28 11:36:57;;;;;;;622.15;238.23;;;8.00;99.90;;;;;;5121758;28;20243;-81
2021/11/28 11:39:26;;;;;;;630.17;264.98;;;8.00;99.90;;;;;;5117478;28;20222;-81
2021/11/28 11:49:57;;;;;;;642.50;286.08;;;8.10;99.90;;;;;;5104274;28;20232;-81
2021/11/28 11:58:01;;;;;;;645.42;296.67;;;8.10;99.90;;;;;;5113155;28;20200;-81
2021/11/28 12:00:34;;;;;;;648.95;303.25;;;8.10;99.90;;;;;;5098840;28;20200;-81
2021/11/28 12:03:13;;;;;;;642.45;301.90;;;8.10;99.90;;;;;;5114545;28;20232;-81
2021/11/28 12:08:35;;;;;;;636.85;266.25;;;7.80;99.90;;;;;;5103282;28;20257;-79
2021/11/28 12:19:41;;;;;;;637.65;281.13;;;7.60;99.90;;;;;;5090187;28;20211;-80
2021/11/28 12:22:52;;;;;;;639.67;301.90;;;7.50;99.90;;;;;;5093004;28;20260;-79
2021/11/28 12:25:48;;;;;;;632.47;275.05;;;7.50;99.90;;;;;;5076956;28;20227;-79
2021/11/28 12:28:33;;;;;;;633.28;274.23;;;7.50;99.90;;;;;;5091025;28;20193;-79
2021/11/28 12:34:03;;;;;;;622.58;249.95;;;7.50;99.90;;;;;;5096662;28;20251;-79
2021/11/28 12:39:37;;;;;;;623.30;251.52;;;7.40;99.90;;;;;;5091967;28;20238;-80
2021/11/28 12:42:21;;;;;;;615.78;230.63;;;7.30;99.90;;;;;;5091323;28;20204;-78
2021/11/28 12:45:02;;;;;;;623.42;248.68;;;7.30;99.90;;;;;;5097278;28;20710;-79
2021/11/28 12:47:30;;;;;;;622.90;235.98;;;7.30;99.90;;;;;;5091630;28;20204;-78
2021/11/28 12:58:13;;;;;;;621.80;242.35;;;7.40;99.90;;;;;;5095163;28;20272;-80
2021/11/28 13:00:48;;;;;;;617.85;235.90;;;7.30;99.90;;;;;;5072406;28;20208;-80
2021/11/28 13:03:24;;;;;;;619.30;228.43;;;7.30;99.90;;;;;;5098065;28;20307;-81
2021/11/28 13:11:35;;;;;;;617.65;245.32;;;7.40;99.90;;;;;;5094606;28;20209;-81
2021/11/28 13:21:51;;;;;;;606.80;224.10;;;7.10;99.90;;;;;;4985751;28;20262;-81
2021/11/28 13:31:27;;;;;;;617.33;237.52;;;7.10;99.90;;;;;;4882449;29;20217;-79
2021/11/28 13:33:57;;;;;;;617.97;249.80;;;7.10;99.90;;;;;;4929108;29;20233;-79
2021/11/28 13:36:25;;;;;;;618.10;242.68;;;7.00;99.90;;;;;;4928901;29;20270;-79
2021/11/28 13:38:54;;;;;;;628.05;272.10;;;7.00;99.90;;;;;;4928818;29;20203;-80
2021/11/28 13:44:08;;;;;;;611.67;225.70;;;6.90;99.90;;;;;;4927454;29;20234;-79
2021/11/28 13:49:59;;;;;;;611.25;228.95;;;6.90;99.90;;;;;;4926830;29;20229;-79
2021/11/28 13:55:15;;;;;;;601.40;211.50;;;6.90;99.90;;;;;;4962796;28;20216;-78
2021/11/28 13:57:42;;;;;;;606.22;222.50;;;6.90;99.90;;;;;;5029778;28;20207;-78
2021/11/28 14:00:10;;;;;;;618.95;241.60;;;6.80;99.90;;;;;;5098172;28;20212;-78
2021/11/28 14:02:41;;;;;;;617.65;230.80;;;6.80;99.90;;;;;;5095747;28;20200;-78
2021/11/28 14:05:10;;;;;;;618.75;240.38;;;6.70;99.90;;;;;;5102351;28;20232;-78
2021/11/28 14:07:39;;;;;;;616.03;233.15;;;6.70;99.90;;;;;;5098094;28;20197;-78
2021/11/28 14:10:09;;;;;;;624.63;253.50;;;6.70;99.90;;;;;;5099440;28;20201;-78
2021/11/28 14:12:38;;;;;;;618.08;236.93;;;6.70;99.90;;;;;;5086514;28;20227;-78
2021/11/28 14:15:11;;;;;;;610.35;212.77;;;6.70;99.90;;;;;;5093551;28;20204;-78
2021/11/28 14:17:40;;;;;;;602.97;196.57;;;6.70;99.90;;;;;;5094077;28;20636;-78
2021/11/28 14:20:09;;;;;;;617.03;222.70;;;6.70;99.90;;;;;;5095511;28;20199;-78
2021/11/28 14:22:39;;;;;;;611.65;220.77;;;6.70;99.90;;;;;;5087854;28;20197;-78
2021/11/28 14:25:22;;;;;;;617.50;238.77;;;6.70;99.90;;;;;;5089373;28;20291;-78
2021/11/28 14:28:19;;;;;;;621.08;247.15;;;6.70;99.90;;;;;;5092648;28;20264;-79
2021/11/28 14:31:00;;;;;;;616.80;226.52;;;6.60;99.90;;;;;;5087386;28;20233;-79
2021/11/28 14:33:34;;;;;;;621.90;242.45;;;6.60;99.90;;;;;;5086931;28;20200;-79
2021/11/28 14:36:03;;;;;;;618.63;237.60;;;6.60;99.90;;;;;;5093928;28;20226;-79
2021/11/28 14:38:33;;;;;;;621.38;253.90;;;6.70;99.90;;;;;;5085300;28;20205;-80
2021/11/28 14:41:03;;;;;;;621.55;257.27;;;6.70;99.90;;;;;;5086687;28;20258;-80
2021/11/28 14:43:31;;;;;;;613.65;227.02;;;6.70;99.90;;;;;;5086909;28;20197;-80
2021/11/28 14:46:10;;;;;;;627.88;249.43;;;6.70;99.90;;;;;;5086540;28;20235;-80
2021/11/28 14:48:40;;;;;;;621.92;254.80;;;6.80;99.90;;;;;;5092718;28;20207;-79
2021/11/28 14:51:11;;;;;;;619.20;236.77;;;6.80;99.90;;;;;;5093373;28;20196;-79
2021/11/28 14:53:42;;;;;;;615.15;245.55;;;6.90;99.90;;;;;;5092375;28;20223;-80
2021/11/28 14:56:18;;;;;;;611.53;225.13;;;6.80;99.90;;;;;;5086504;28;20198;-79
2021/11/28 14:58:49;;;;;;;606.72;229.35;;;6.70;99.90;;;;;;5086380;28;20203;-78
2021/11/28 15:01:19;;;;;;;616.88;244.32;;;6.70;99.90;;;;;;5099840;28;20200;-79
2021/11/28 15:04:06;;;;;;;621.22;242.15;;;6.80;99.90;;;;;;5101450;28;20661;-78
2021/11/28 15:06:50;;;;;;;612.20;218.23;;;6.80;99.90;;;;;;5085636;28;20345;-78
2021/11/28 15:09:18;;;;;;;619.45;238.90;;;6.80;99.90;;;;;;5092289;28;20288;-79
2021/11/28 15:11:45;;;;;;;612.10;233.73;;;6.80;99.90;;;;;;5090364;28;20213;-79
2021/11/28 15:16:57;;;;;;;612.83;238.52;;;6.80;99.90;;;;;;5101100;28;20260;-78
2021/11/28 15:19:30;;;;;;;604.45;220.98;;;6.80;99.90;;;;;;5095058;28;20260;-78
2021/11/28 15:21:58;;;;;;;604.88;211.27;;;6.80;99.90;;;;;;5095810;28;20201;-80
2021/11/28 15:27:07;;;;;;;614.97;230.32;;;6.70;99.90;;;;;;5094376;28;20264;-80
2021/11/28 15:29:38;;;;;;;543.57;144.80;;;6.80;99.90;;;;;;5097398;28;20223;-79